KMHV

Mojave Air and Space Port Airport

Mojave, California, USA
METAR KMHV 170000Z AUTO 17005KT 10SM CLR 14/M04 A3013 RMK A01
Observed Flight Rules
Dec-17 @ 00:00 UTC (39 minutes ago) Visual Flight Rules
Wind Visibility Clouds
170° at 5 knots 10 miles
  • Clear skies
Temperatures Readings
Current 14°C / 57°F
Dewpoint -4°C / 25°F
Humidity 29%
Altimeter 30.13" Hg
Pressure 1020 hPa
Elevation 849
METAR KMHV 170000Z AUTO 17005KT 10SM CLR 14/M04 A3013 RMK A01
Observed Flight Rules
Dec-17 @ 00:00 UTC
(39 minutes ago)
VFR
Wind Visibility
170° at 5 knots 10 miles
Clouds
  • Clear skies
Temperature Dewpoint
14°C / 57°F -4°C / 25°F
Humidity Altimeter Pressure
29% 30.13" Hg 1020 hPa